sensor_id;sensor_type;location;lat;lon;timestamp;pressure;altitude;pressure_sealevel;temperature;humidity
13013;BME280;22580;57.670;12.006;2023-11-25T00:01:06;99700.81;;;14.23;30.39
13013;BME280;22580;57.670;12.006;2023-11-25T00:03:34;99700.91;;;14.14;31.09
13013;BME280;22580;57.670;12.006;2023-11-25T00:06:04;99695.22;;;14.17;30.84
13013;BME280;22580;57.670;12.006;2023-11-25T00:08:31;99695.75;;;13.76;31.00
13013;BME280;22580;57.670;12.006;2023-11-25T00:10:59;99705.91;;;13.65;31.61
13013;BME280;22580;57.670;12.006;2023-11-25T00:13:26;99692.50;;;13.91;31.13
13013;BME280;22580;57.670;12.006;2023-11-25T00:15:53;99721.34;;;13.89;30.62
13013;BME280;22580;57.670;12.006;2023-11-25T00:18:21;99706.06;;;14.07;30.52
13013;BME280;22580;57.670;12.006;2023-11-25T00:20:50;99720.00;;;13.85;30.63
13013;BME280;22580;57.670;12.006;2023-11-25T00:23:18;99700.25;;;13.94;30.50
13013;BME280;22580;57.670;12.006;2023-11-25T00:25:44;99720.50;;;14.06;30.43
13013;BME280;22580;57.670;12.006;2023-11-25T00:28:11;99715.19;;;14.14;30.47
13013;BME280;22580;57.670;12.006;2023-11-25T00:30:38;99724.41;;;14.11;30.25
13013;BME280;22580;57.670;12.006;2023-11-25T00:33:06;99721.41;;;13.97;30.51
13013;BME280;22580;57.670;12.006;2023-11-25T00:35:32;99718.97;;;14.03;30.38
13013;BME280;22580;57.670;12.006;2023-11-25T00:38:01;99719.97;;;14.02;30.66
13013;BME280;22580;57.670;12.006;2023-11-25T00:40:33;99736.31;;;14.35;30.15
13013;BME280;22580;57.670;12.006;2023-11-25T00:43:01;99745.69;;;14.49;30.09
13013;BME280;22580;57.670;12.006;2023-11-25T00:45:31;99747.75;;;14.55;30.14
13013;BME280;22580;57.670;12.006;2023-11-25T00:47:58;99756.69;;;14.37;30.49
13013;BME280;22580;57.670;12.006;2023-11-25T00:50:25;99752.13;;;14.56;30.25
13013;BME280;22580;57.670;12.006;2023-11-25T00:52:52;99733.47;;;14.54;30.45
13013;BME280;22580;57.670;12.006;2023-11-25T00:55:22;99742.16;;;14.48;31.47
13013;BME280;22580;57.670;12.006;2023-11-25T00:57:48;99741.50;;;14.28;33.23
13013;BME280;22580;57.670;12.006;2023-11-25T01:00:19;99734.66;;;14.60;32.67
13013;BME280;22580;57.670;12.006;2023-11-25T01:02:48;99733.72;;;14.69;33.76
13013;BME280;22580;57.670;12.006;2023-11-25T01:05:15;99734.16;;;14.56;34.04
13013;BME280;22580;57.670;12.006;2023-11-25T01:07:42;99741.38;;;14.56;34.80
13013;BME280;22580;57.670;12.006;2023-11-25T01:10:11;99741.63;;;14.79;34.37
13013;BME280;22580;57.670;12.006;2023-11-25T01:12:41;99734.13;;;14.90;34.81
13013;BME280;22580;57.670;12.006;2023-11-25T01:15:10;99733.88;;;14.67;35.28
13013;BME280;22580;57.670;12.006;2023-11-25T01:17:38;99729.19;;;14.69;34.97
13013;BME280;22580;57.670;12.006;2023-11-25T01:20:06;99729.88;;;14.71;35.00
13013;BME280;22580;57.670;12.006;2023-11-25T01:22:35;99715.53;;;14.63;35.34
13013;BME280;22580;57.670;12.006;2023-11-25T01:25:02;99719.00;;;14.55;35.58
13013;BME280;22580;57.670;12.006;2023-11-25T01:27:29;99722.75;;;14.62;35.79
13013;BME280;22580;57.670;12.006;2023-11-25T01:29:58;99718.91;;;14.65;36.06
13013;BME280;22580;57.670;12.006;2023-11-25T01:32:25;99730.13;;;14.60;35.95
13013;BME280;22580;57.670;12.006;2023-11-25T01:34:52;99725.97;;;14.66;35.80
13013;BME280;22580;57.670;12.006;2023-11-25T01:37:19;99716.84;;;15.01;35.10
13013;BME280;22580;57.670;12.006;2023-11-25T01:39:49;99723.63;;;14.71;35.53
13013;BME280;22580;57.670;12.006;2023-11-25T01:42:16;99728.13;;;14.62;35.57
13013;BME280;22580;57.670;12.006;2023-11-25T01:44:44;99715.97;;;14.32;36.30
13013;BME280;22580;57.670;12.006;2023-11-25T01:47:12;99718.47;;;14.86;35.57
13013;BME280;22580;57.670;12.006;2023-11-25T01:49:41;99724.56;;;14.96;35.43
13013;BME280;22580;57.670;12.006;2023-11-25T01:52:12;99724.06;;;14.92;35.58
13013;BME280;22580;57.670;12.006;2023-11-25T01:54:39;99736.03;;;14.98;35.40
13013;BME280;22580;57.670;12.006;2023-11-25T01:57:07;99732.34;;;14.65;36.07
13013;BME280;22580;57.670;12.006;2023-11-25T01:59:36;99744.88;;;14.30;36.85
13013;BME280;22580;57.670;12.006;2023-11-25T02:02:03;99731.81;;;14.61;36.24
13013;BME280;22580;57.670;12.006;2023-11-25T02:04:33;99734.88;;;14.66;36.20
13013;BME280;22580;57.670;12.006;2023-11-25T02:07:04;99738.94;;;14.70;36.49
13013;BME280;22580;57.670;12.006;2023-11-25T02:09:31;99737.47;;;14.32;36.83
13013;BME280;22580;57.670;12.006;2023-11-25T02:12:00;99744.31;;;14.70;36.51
13013;BME280;22580;57.670;12.006;2023-11-25T02:14:28;99740.13;;;14.76;36.50
13013;BME280;22580;57.670;12.006;2023-11-25T02:16:56;99742.59;;;14.61;36.91
13013;BME280;22580;57.670;12.006;2023-11-25T02:19:27;99749.44;;;14.56;36.75
13013;BME280;22580;57.670;12.006;2023-11-25T02:21:55;99744.38;;;14.35;37.21
13013;BME280;22580;57.670;12.006;2023-11-25T02:24:25;99743.00;;;14.49;37.23
13013;BME280;22580;57.670;12.006;2023-11-25T02:26:58;99746.09;;;14.36;37.62
13013;BME280;22580;57.670;12.006;2023-11-25T02:29:25;99752.25;;;14.28;37.64
13013;BME280;22580;57.670;12.006;2023-11-25T02:31:53;99747.22;;;14.51;37.14
13013;BME280;22580;57.670;12.006;2023-11-25T02:34:20;99756.03;;;14.18;37.63
13013;BME280;22580;57.670;12.006;2023-11-25T02:36:47;99745.75;;;14.39;37.60
13013;BME280;22580;57.670;12.006;2023-11-25T02:39:14;99738.31;;;14.33;37.61
13013;BME280;22580;57.670;12.006;2023-11-25T02:41:50;99742.50;;;14.09;37.81
13013;BME280;22580;57.670;12.006;2023-11-25T02:44:19;99744.59;;;14.16;38.04
13013;BME280;22580;57.670;12.006;2023-11-25T02:46:47;99753.31;;;14.35;38.07
13013;BME280;22580;57.670;12.006;2023-11-25T02:49:16;99753.34;;;14.61;37.15
13013;BME280;22580;57.670;12.006;2023-11-25T02:51:47;99757.41;;;14.73;36.69
13013;BME280;22580;57.670;12.006;2023-11-25T02:54:15;99751.72;;;14.76;36.76
13013;BME280;22580;57.670;12.006;2023-11-25T02:56:43;99747.34;;;14.75;36.76
13013;BME280;22580;57.670;12.006;2023-11-25T02:59:12;99749.50;;;14.64;36.92
13013;BME280;22580;57.670;12.006;2023-11-25T03:01:40;99753.72;;;14.66;36.59
13013;BME280;22580;57.670;12.006;2023-11-25T03:04:15;99770.47;;;14.60;36.68
13013;BME280;22580;57.670;12.006;2023-11-25T03:06:42;99773.00;;;14.18;37.84
13013;BME280;22580;57.670;12.006;2023-11-25T03:09:09;99768.13;;;14.39;37.04
13013;BME280;22580;57.670;12.006;2023-11-25T03:11:38;99770.75;;;14.31;37.22
13013;BME280;22580;57.670;12.006;2023-11-25T03:14:06;99768.91;;;14.32;36.97
13013;BME280;22580;57.670;12.006;2023-11-25T03:16:35;99778.13;;;14.47;36.76
13013;BME280;22580;57.670;12.006;2023-11-25T03:19:06;99780.06;;;14.63;36.46
13013;BME280;22580;57.670;12.006;2023-11-25T03:21:35;99776.81;;;14.51;36.69
13013;BME280;22580;57.670;12.006;2023-11-25T03:24:03;99781.50;;;14.31;36.95
13013;BME280;22580;57.670;12.006;2023-11-25T03:26:32;99781.19;;;14.34;36.90
13013;BME280;22580;57.670;12.006;2023-11-25T03:28:58;99791.47;;;14.39;36.63
13013;BME280;22580;57.670;12.006;2023-11-25T03:31:26;99797.09;;;14.28;37.21
13013;BME280;22580;57.670;12.006;2023-11-25T03:33:57;99799.47;;;14.13;37.20
13013;BME280;22580;57.670;12.006;2023-11-25T03:36:24;99813.47;;;14.17;37.22
13013;BME280;22580;57.670;12.006;2023-11-25T03:38:52;99809.00;;;13.54;38.36
13013;BME280;22580;57.670;12.006;2023-11-25T03:41:20;99810.53;;;14.10;37.47
13013;BME280;22580;57.670;12.006;2023-11-25T03:43:49;99819.69;;;14.17;37.34
13013;BME280;22580;57.670;12.006;2023-11-25T03:46:16;99825.06;;;14.17;37.27
13013;BME280;22580;57.670;12.006;2023-11-25T03:48:43;99829.88;;;13.96;37.27
13013;BME280;22580;57.670;12.006;2023-11-25T03:51:13;99842.56;;;14.03;37.70
13013;BME280;22580;57.670;12.006;2023-11-25T03:53:40;99839.88;;;14.03;37.60
13013;BME280;22580;57.670;12.006;2023-11-25T03:56:07;99846.09;;;14.04;37.47
13013;BME280;22580;57.670;12.006;2023-11-25T03:58:34;99852.84;;;14.08;37.37
13013;BME280;22580;57.670;12.006;2023-11-25T04:01:02;99854.75;;;13.98;37.61
13013;BME280;22580;57.670;12.006;2023-11-25T04:03:29;99873.59;;;14.33;37.16
13013;BME280;22580;57.670;12.006;2023-11-25T04:05:58;99868.22;;;14.16;37.23
13013;BME280;22580;57.670;12.006;2023-11-25T04:08:26;99874.88;;;14.11;37.48
13013;BME280;22580;57.670;12.006;2023-11-25T04:10:53;99877.94;;;13.81;37.99
13013;BME280;22580;57.670;12.006;2023-11-25T04:13:20;99894.81;;;13.91;37.71
13013;BME280;22580;57.670;12.006;2023-11-25T04:15:48;99885.84;;;13.55;38.26
13013;BME280;22580;57.670;12.006;2023-11-25T04:18:14;99904.72;;;13.73;38.02
13013;BME280;22580;57.670;12.006;2023-11-25T04:20:41;99888.16;;;13.77;37.30
13013;BME280;22580;57.670;12.006;2023-11-25T04:23:09;99899.91;;;14.12;37.08
13013;BME280;22580;57.670;12.006;2023-11-25T04:25:42;99899.22;;;14.10;36.93
13013;BME280;22580;57.670;12.006;2023-11-25T04:28:11;99899.75;;;13.96;37.13
13013;BME280;22580;57.670;12.006;2023-11-25T04:30:38;99908.53;;;14.16;36.71
13013;BME280;22580;57.670;12.006;2023-11-25T04:33:07;99917.13;;;14.37;36.26
13013;BME280;22580;57.670;12.006;2023-11-25T04:35:36;99931.03;;;14.32;36.26
13013;BME280;22580;57.670;12.006;2023-11-25T04:38:03;99941.44;;;14.00;36.86
13013;BME280;22580;57.670;12.006;2023-11-25T04:40:32;99944.03;;;14.37;35.96
13013;BME280;22580;57.670;12.006;2023-11-25T04:43:01;99948.75;;;14.70;35.55
13013;BME280;22580;57.670;12.006;2023-11-25T04:45:30;99939.44;;;14.65;35.42
13013;BME280;22580;57.670;12.006;2023-11-25T04:48:00;99946.38;;;14.67;35.35
13013;BME280;22580;57.670;12.006;2023-11-25T04:50:27;99953.97;;;14.72;35.37
13013;BME280;22580;57.670;12.006;2023-11-25T04:52:54;99961.34;;;14.52;35.37
13013;BME280;22580;57.670;12.006;2023-11-25T04:55:22;99971.66;;;14.57;35.36
13013;BME280;22580;57.670;12.006;2023-11-25T04:57:52;99974.75;;;14.34;35.61
13013;BME280;22580;57.670;12.006;2023-11-25T05:00:21;99973.19;;;14.32;35.52
13013;BME280;22580;57.670;12.006;2023-11-25T05:02:48;99968.94;;;14.11;35.77
13013;BME280;22580;57.670;12.006;2023-11-25T05:05:15;99973.16;;;14.41;35.42
13013;BME280;22580;57.670;12.006;2023-11-25T05:07:42;99980.03;;;14.26;36.02
13013;BME280;22580;57.670;12.006;2023-11-25T05:10:13;99982.41;;;14.57;35.45
13013;BME280;22580;57.670;12.006;2023-11-25T05:12:40;99988.69;;;14.48;35.63
13013;BME280;22580;57.670;12.006;2023-11-25T05:15:08;100002.53;;;13.98;36.44
13013;BME280;22580;57.670;12.006;2023-11-25T05:17:37;100012.03;;;14.20;35.97
13013;BME280;22580;57.670;12.006;2023-11-25T05:20:06;100010.25;;;13.83;36.86
13013;BME280;22580;57.670;12.006;2023-11-25T05:22:35;100002.31;;;14.64;35.80
13013;BME280;22580;57.670;12.006;2023-11-25T05:25:03;100021.44;;;14.79;35.59
13013;BME280;22580;57.670;12.006;2023-11-25T05:27:31;100034.13;;;14.68;35.67
13013;BME280;22580;57.670;12.006;2023-11-25T05:29:58;100045.47;;;14.45;36.16
13013;BME280;22580;57.670;12.006;2023-11-25T05:32:26;100052.19;;;14.58;36.29
13013;BME280;22580;57.670;12.006;2023-11-25T05:34:55;100052.00;;;14.42;36.56
13013;BME280;22580;57.670;12.006;2023-11-25T05:37:22;100057.19;;;14.16;36.98
13013;BME280;22580;57.670;12.006;2023-11-25T05:39:52;100053.41;;;14.64;36.42
13013;BME280;22580;57.670;12.006;2023-11-25T05:42:20;100055.13;;;14.65;36.10
13013;BME280;22580;57.670;12.006;2023-11-25T05:44:52;100053.13;;;14.67;36.12
13013;BME280;22580;57.670;12.006;2023-11-25T05:47:21;100063.94;;;14.75;36.02
13013;BME280;22580;57.670;12.006;2023-11-25T05:49:48;100076.47;;;14.84;35.75
13013;BME280;22580;57.670;12.006;2023-11-25T05:52:17;100087.09;;;14.86;35.96
13013;BME280;22580;57.670;12.006;2023-11-25T05:54:44;100076.25;;;14.60;36.00
13013;BME280;22580;57.670;12.006;2023-11-25T05:57:11;100076.03;;;14.71;36.07
13013;BME280;22580;57.670;12.006;2023-11-25T05:59:38;100077.84;;;13.78;37.22
13013;BME280;22580;57.670;12.006;2023-11-25T06:02:06;100094.63;;;14.27;36.63
13013;BME280;22580;57.670;12.006;2023-11-25T06:04:33;100092.13;;;14.53;36.18
13013;BME280;22580;57.670;12.006;2023-11-25T06:07:00;100111.06;;;14.24;36.38
13013;BME280;22580;57.670;12.006;2023-11-25T06:09:29;100110.75;;;14.27;36.15
13013;BME280;22580;57.670;12.006;2023-11-25T06:11:56;100116.94;;;14.37;36.24
13013;BME280;22580;57.670;12.006;2023-11-25T06:14:23;100113.06;;;14.13;36.28
13013;BME280;22580;57.670;12.006;2023-11-25T06:16:51;100123.13;;;14.10;36.08
13013;BME280;22580;57.670;12.006;2023-11-25T06:19:23;100111.25;;;14.40;35.58
13013;BME280;22580;57.670;12.006;2023-11-25T06:21:50;100121.00;;;14.51;35.58
13013;BME280;22580;57.670;12.006;2023-11-25T06:24:20;100132.56;;;14.61;35.58
13013;BME280;22580;57.670;12.006;2023-11-25T06:26:48;100140.25;;;14.56;35.11
13013;BME280;22580;57.670;12.006;2023-11-25T06:29:19;100150.97;;;14.19;35.63
13013;BME280;22580;57.670;12.006;2023-11-25T06:31:46;100147.31;;;14.10;35.68
13013;BME280;22580;57.670;12.006;2023-11-25T06:34:15;100164.31;;;13.92;35.68
13013;BME280;22580;57.670;12.006;2023-11-25T06:36:42;100159.88;;;13.73;35.57
13013;BME280;22580;57.670;12.006;2023-11-25T06:39:11;100171.34;;;14.12;35.04
13013;BME280;22580;57.670;12.006;2023-11-25T06:41:41;100183.69;;;13.95;35.11
13013;BME280;22580;57.670;12.006;2023-11-25T06:44:16;100178.72;;;14.10;34.74
13013;BME280;22580;57.670;12.006;2023-11-25T06:46:43;100189.75;;;14.07;34.63
13013;BME280;22580;57.670;12.006;2023-11-25T06:49:10;100202.16;;;14.27;34.71
13013;BME280;22580;57.670;12.006;2023-11-25T06:51:39;100204.44;;;14.22;34.00
13013;BME280;22580;57.670;12.006;2023-11-25T06:54:07;100205.56;;;14.20;34.35
13013;BME280;22580;57.670;12.006;2023-11-25T06:56:34;100210.09;;;14.19;34.13
13013;BME280;22580;57.670;12.006;2023-11-25T06:59:01;100216.75;;;14.25;34.20
13013;BME280;22580;57.670;12.006;2023-11-25T07:01:30;100217.06;;;14.02;34.02
13013;BME280;22580;57.670;12.006;2023-11-25T07:03:57;100225.69;;;13.96;34.08
13013;BME280;22580;57.670;12.006;2023-11-25T07:06:24;100238.03;;;13.80;34.31
13013;BME280;22580;57.670;12.006;2023-11-25T07:08:51;100248.22;;;13.86;34.51
13013;BME280;22580;57.670;12.006;2023-11-25T07:11:19;100248.34;;;13.65;34.85
13013;BME280;22580;57.670;12.006;2023-11-25T07:13:47;100242.25;;;13.92;34.55
13013;BME280;22580;57.670;12.006;2023-11-25T07:16:14;100252.84;;;14.03;34.14
13013;BME280;22580;57.670;12.006;2023-11-25T07:18:43;100244.47;;;14.16;34.09
13013;BME280;22580;57.670;12.006;2023-11-25T07:21:11;100264.13;;;14.35;33.85
13013;BME280;22580;57.670;12.006;2023-11-25T07:23:38;100264.00;;;14.27;33.66
13013;BME280;22580;57.670;12.006;2023-11-25T07:26:06;100267.38;;;14.39;33.72
13013;BME280;22580;57.670;12.006;2023-11-25T07:28:35;100284.34;;;14.30;33.80
13013;BME280;22580;57.670;12.006;2023-11-25T07:31:02;100275.28;;;14.40;33.50
13013;BME280;22580;57.670;12.006;2023-11-25T07:33:30;100277.16;;;14.30;33.64
13013;BME280;22580;57.670;12.006;2023-11-25T07:35:58;100281.25;;;14.44;33.51
13013;BME280;22580;57.670;12.006;2023-11-25T07:38:26;100275.56;;;14.37;33.33
13013;BME280;22580;57.670;12.006;2023-11-25T07:40:54;100291.28;;;14.52;33.35
13013;BME280;22580;57.670;12.006;2023-11-25T07:43:21;100287.34;;;14.27;33.80
13013;BME280;22580;57.670;12.006;2023-11-25T07:45:50;100285.78;;;14.43;33.24
13013;BME280;22580;57.670;12.006;2023-11-25T07:48:17;100294.00;;;14.23;33.64
13013;BME280;22580;57.670;12.006;2023-11-25T07:50:44;100295.53;;;14.25;33.58
13013;BME280;22580;57.670;12.006;2023-11-25T07:53:14;100307.00;;;14.08;33.68
13013;BME280;22580;57.670;12.006;2023-11-25T07:55:41;100317.63;;;14.00;33.57
13013;BME280;22580;57.670;12.006;2023-11-25T07:58:09;100312.25;;;14.29;33.03
13013;BME280;22580;57.670;12.006;2023-11-25T08:00:37;100311.81;;;14.04;32.96
13013;BME280;22580;57.670;12.006;2023-11-25T08:03:03;100319.59;;;13.88;33.10
13013;BME280;22580;57.670;12.006;2023-11-25T08:05:32;100324.13;;;14.07;32.86
13013;BME280;22580;57.670;12.006;2023-11-25T08:08:00;100330.94;;;13.82;32.45
13013;BME280;22580;57.670;12.006;2023-11-25T08:10:30;100341.25;;;14.06;32.00
13013;BME280;22580;57.670;12.006;2023-11-25T08:13:00;100347.03;;;14.01;31.76
13013;BME280;22580;57.670;12.006;2023-11-25T08:15:27;100337.44;;;14.08;31.68
13013;BME280;22580;57.670;12.006;2023-11-25T08:17:54;100354.53;;;14.07;31.44
13013;BME280;22580;57.670;12.006;2023-11-25T08:20:22;100357.06;;;13.70;31.73
13013;BME280;22580;57.670;12.006;2023-11-25T08:22:49;100362.72;;;13.67;32.08
13013;BME280;22580;57.670;12.006;2023-11-25T08:25:17;100369.50;;;13.91;31.16
13013;BME280;22580;57.670;12.006;2023-11-25T08:27:49;100353.28;;;13.83;31.22
13013;BME280;22580;57.670;12.006;2023-11-25T08:30:17;100364.59;;;14.05;31.10
13013;BME280;22580;57.670;12.006;2023-11-25T08:32:44;100371.28;;;13.52;31.50
13013;BME280;22580;57.670;12.006;2023-11-25T08:35:11;100375.31;;;13.06;32.29
13013;BME280;22580;57.670;12.006;2023-11-25T08:37:39;100377.69;;;13.60;31.45
13013;BME280;22580;57.670;12.006;2023-11-25T08:40:07;100372.34;;;13.80;31.23
13013;BME280;22580;57.670;12.006;2023-11-25T08:42:35;100375.38;;;13.46;31.50
13013;BME280;22580;57.670;12.006;2023-11-25T08:45:12;100373.19;;;13.70;31.63
13013;BME280;22580;57.670;12.006;2023-11-25T08:47:39;100386.78;;;13.38;31.37
13013;BME280;22580;57.670;12.006;2023-11-25T08:50:08;100379.22;;;13.53;31.41
13013;BME280;22580;57.670;12.006;2023-11-25T08:52:36;100368.22;;;13.66;31.07
13013;BME280;22580;57.670;12.006;2023-11-25T08:55:05;100385.94;;;13.38;31.44
13013;BME280;22580;57.670;12.006;2023-11-25T08:57:33;100390.50;;;13.47;31.59
13013;BME280;22580;57.670;12.006;2023-11-25T09:00:04;100393.72;;;13.41;31.89
13013;BME280;22580;57.670;12.006;2023-11-25T09:02:40;100393.56;;;13.33;31.63
13013;BME280;22580;57.670;12.006;2023-11-25T09:05:07;100395.22;;;13.64;31.76
13013;BME280;22580;57.670;12.006;2023-11-25T09:07:34;100399.50;;;13.76;31.75
13013;BME280;22580;57.670;12.006;2023-11-25T09:10:01;100392.28;;;13.87;31.35
13013;BME280;22580;57.670;12.006;2023-11-25T09:12:30;100397.47;;;13.59;31.56
13013;BME280;22580;57.670;12.006;2023-11-25T09:14:57;100403.69;;;13.60;31.90
13013;BME280;22580;57.670;12.006;2023-11-25T09:17:26;100402.22;;;13.86;31.41
13013;BME280;22580;57.670;12.006;2023-11-25T09:19:53;100401.84;;;13.60;31.97
13013;BME280;22580;57.670;12.006;2023-11-25T09:22:21;100404.06;;;13.45;32.01
13013;BME280;22580;57.670;12.006;2023-11-25T09:24:59;100404.56;;;13.70;31.82
13013;BME280;22580;57.670;12.006;2023-11-25T09:27:28;100405.28;;;13.32;32.11
13013;BME280;22580;57.670;12.006;2023-11-25T09:29:55;100396.63;;;13.59;31.55
13013;BME280;22580;57.670;12.006;2023-11-25T09:32:23;100403.56;;;13.61;31.60
13013;BME280;22580;57.670;12.006;2023-11-25T09:34:56;100416.97;;;13.61;31.50
13013;BME280;22580;57.670;12.006;2023-11-25T09:37:23;100418.19;;;13.48;31.61
13013;BME280;22580;57.670;12.006;2023-11-25T09:39:50;100417.00;;;13.71;31.52
13013;BME280;22580;57.670;12.006;2023-11-25T09:42:20;100436.22;;;13.66;31.82
13013;BME280;22580;57.670;12.006;2023-11-25T09:44:51;100428.75;;;13.39;32.22
13013;BME280;22580;57.670;12.006;2023-11-25T09:47:21;100431.25;;;13.10;32.60
13013;BME280;22580;57.670;12.006;2023-11-25T09:49:48;100429.69;;;13.08;32.22
13013;BME280;22580;57.670;12.006;2023-11-25T09:52:19;100422.88;;;12.73;32.42
13013;BME280;22580;57.670;12.006;2023-11-25T09:54:46;100435.16;;;13.18;32.43
13013;BME280;22580;57.670;12.006;2023-11-25T09:57:15;100426.38;;;13.46;31.78
13013;BME280;22580;57.670;12.006;2023-11-25T09:59:47;100418.75;;;13.41;31.89
13013;BME280;22580;57.670;12.006;2023-11-25T10:02:15;100430.09;;;13.24;31.93
13013;BME280;22580;57.670;12.006;2023-11-25T10:04:49;100440.03;;;13.64;31.72
13013;BME280;22580;57.670;12.006;2023-11-25T10:07:18;100447.88;;;13.04;32.17
13013;BME280;22580;57.670;12.006;2023-11-25T10:09:46;100437.72;;;12.98;32.00
13013;BME280;22580;57.670;12.006;2023-11-25T10:12:13;100452.47;;;13.34;31.65
13013;BME280;22580;57.670;12.006;2023-11-25T10:14:40;100457.63;;;13.47;32.15
13013;BME280;22580;57.670;12.006;2023-11-25T10:17:18;100456.47;;;13.80;31.61
13013;BME280;22580;57.670;12.006;2023-11-25T10:19:46;100462.09;;;13.67;31.17
13013;BME280;22580;57.670;12.006;2023-11-25T10:22:13;100471.53;;;13.62;31.47
13013;BME280;22580;57.670;12.006;2023-11-25T10:24:47;100478.09;;;13.18;32.13
13013;BME280;22580;57.670;12.006;2023-11-25T10:27:15;100477.31;;;13.27;31.92
13013;BME280;22580;57.670;12.006;2023-11-25T10:29:42;100472.66;;;13.59;31.88
13013;BME280;22580;57.670;12.006;2023-11-25T10:32:10;100467.59;;;13.14;32.02
13013;BME280;22580;57.670;12.006;2023-11-25T10:34:37;100476.22;;;13.39;32.21
13013;BME280;22580;57.670;12.006;2023-11-25T10:37:06;100472.44;;;13.41;32.04
13013;BME280;22580;57.670;12.006;2023-11-25T10:39:36;100480.97;;;13.26;31.63
13013;BME280;22580;57.670;12.006;2023-11-25T10:42:09;100507.00;;;13.56;31.45
13013;BME280;22580;57.670;12.006;2023-11-25T10:44:36;100498.69;;;13.38;31.12
13013;BME280;22580;57.670;12.006;2023-11-25T10:47:06;100490.19;;;13.33;30.98
13013;BME280;22580;57.670;12.006;2023-11-25T10:49:33;100496.25;;;13.14;31.21
13013;BME280;22580;57.670;12.006;2023-11-25T10:52:03;100506.63;;;12.98;31.50
13013;BME280;22580;57.670;12.006;2023-11-25T10:54:30;100485.22;;;13.28;30.99
13013;BME280;22580;57.670;12.006;2023-11-25T10:57:01;100483.50;;;12.65;31.17
13013;BME280;22580;57.670;12.006;2023-11-25T10:59:32;100496.13;;;12.74;31.33
13013;BME280;22580;57.670;12.006;2023-11-25T11:02:02;100482.84;;;12.40;31.04
13013;BME280;22580;57.670;12.006;2023-11-25T11:04:35;100506.41;;;13.10;30.76
13013;BME280;22580;57.670;12.006;2023-11-25T11:07:08;100518.94;;;13.21;30.51
13013;BME280;22580;57.670;12.006;2023-11-25T11:09:42;100506.13;;;12.72;30.60
13013;BME280;22580;57.670;12.006;2023-11-25T11:12:16;100518.69;;;12.71;30.63
13013;BME280;22580;57.670;12.006;2023-11-25T11:14:55;100508.31;;;12.78;30.41
13013;BME280;22580;57.670;12.006;2023-11-25T11:17:30;100519.22;;;13.07;30.14
13013;BME280;22580;57.670;12.006;2023-11-25T11:20:01;100527.97;;;12.67;30.46
13013;BME280;22580;57.670;12.006;2023-11-25T11:22:29;100531.69;;;12.87;30.03
13013;BME280;22580;57.670;12.006;2023-11-25T11:25:06;100528.94;;;12.23;30.68
13013;BME280;22580;57.670;12.006;2023-11-25T11:27:40;100520.94;;;12.87;30.12
13013;BME280;22580;57.670;12.006;2023-11-25T11:30:15;100516.50;;;12.97;30.24
13013;BME280;22580;57.670;12.006;2023-11-25T11:32:46;100514.34;;;12.91;29.77
13013;BME280;22580;57.670;12.006;2023-11-25T11:35:14;100513.09;;;12.95;29.61
13013;BME280;22580;57.670;12.006;2023-11-25T11:37:47;100522.66;;;12.88;29.96
13013;BME280;22580;57.670;12.006;2023-11-25T11:40:15;100520.34;;;13.04;29.56
13013;BME280;22580;57.670;12.006;2023-11-25T11:42:47;100511.31;;;13.05;29.67
13013;BME280;22580;57.670;12.006;2023-11-25T11:45:16;100515.84;;;12.84;29.79
13013;BME280;22580;57.670;12.006;2023-11-25T11:47:51;100521.38;;;12.28;30.16
13013;BME280;22580;57.670;12.006;2023-11-25T11:50:19;100516.47;;;12.44;29.45
13013;BME280;22580;57.670;12.006;2023-11-25T11:52:47;100521.59;;;12.79;29.41
13013;BME280;22580;57.670;12.006;2023-11-25T11:55:36;100505.75;;;12.76;29.10
13013;BME280;22580;57.670;12.006;2023-11-25T11:58:08;100526.44;;;12.10;29.56
13013;BME280;22580;57.670;12.006;2023-11-25T12:00:39;100515.59;;;12.55;29.25
13013;BME280;22580;57.670;12.006;2023-11-25T12:03:06;100520.69;;;12.58;29.24
13013;BME280;22580;57.670;12.006;2023-11-25T12:05:33;100534.16;;;12.79;28.92
13013;BME280;22580;57.670;12.006;2023-11-25T12:07:59;100536.09;;;12.45;29.20
13013;BME280;22580;57.670;12.006;2023-11-25T12:10:26;100530.34;;;12.50;29.46
13013;BME280;22580;57.670;12.006;2023-11-25T12:12:53;100530.47;;;12.48;29.19
13013;BME280;22580;57.670;12.006;2023-11-25T12:15:20;100536.53;;;12.07;29.58
13013;BME280;22580;57.670;12.006;2023-11-25T12:17:50;100542.63;;;11.98;29.26
13013;BME280;22580;57.670;12.006;2023-11-25T12:20:18;100549.94;;;11.85;29.58
13013;BME280;22580;57.670;12.006;2023-11-25T12:22:45;100535.59;;;11.97;29.01
13013;BME280;22580;57.670;12.006;2023-11-25T12:25:12;100541.66;;;12.10;28.70
13013;BME280;22580;57.670;12.006;2023-11-25T12:27:50;100548.66;;;12.33;28.48
13013;BME280;22580;57.670;12.006;2023-11-25T12:30:18;100541.78;;;12.08;28.79
13013;BME280;22580;57.670;12.006;2023-11-25T12:32:45;100543.00;;;12.04;28.87
13013;BME280;22580;57.670;12.006;2023-11-25T12:35:15;100556.53;;;11.92;28.89
13013;BME280;22580;57.670;12.006;2023-11-25T12:37:42;100569.38;;;12.20;29.05
13013;BME280;22580;57.670;12.006;2023-11-25T12:40:17;100572.09;;;12.09;28.94
13013;BME280;22580;57.670;12.006;2023-11-25T12:42:47;100574.25;;;11.70;29.07
13013;BME280;22580;57.670;12.006;2023-11-25T12:45:30;100542.25;;;11.69;29.11
13013;BME280;22580;57.670;12.006;2023-11-25T12:48:00;100545.44;;;11.85;28.60
13013;BME280;22580;57.670;12.006;2023-11-25T12:50:59;100568.94;;;11.81;28.72